sensor_id;sensor_type;location;lat;lon;timestamp;pressure;altitude;pressure_sealevel;temperature;humidity
9141;BME280;46330;50.822;7.126;2022-12-07T00:01:06;101070.72;;;3.97;100.00
9141;BME280;46330;50.822;7.126;2022-12-07T00:03:34;101067.25;;;3.97;100.00
9141;BME280;46330;50.822;7.126;2022-12-07T00:06:04;101067.25;;;3.97;100.00
9141;BME280;46330;50.822;7.126;2022-12-07T00:08:33;101065.59;;;4.00;100.00
9141;BME280;46330;50.822;7.126;2022-12-07T00:11:07;101075.03;;;3.97;100.00
9141;BME280;46330;50.822;7.126;2022-12-07T00:13:35;101061.28;;;4.01;100.00
9141;BME280;46330;50.822;7.126;2022-12-07T00:16:05;101069.06;;;4.01;100.00
9141;BME280;46330;50.822;7.126;2022-12-07T00:18:34;101066.47;;;4.02;100.00
9141;BME280;46330;50.822;7.126;2022-12-07T00:21:03;101065.63;;;4.03;100.00
9141;BME280;46330;50.822;7.126;2022-12-07T00:23:31;101060.50;;;4.06;100.00
9141;BME280;46330;50.822;7.126;2022-12-07T00:26:05;101054.50;;;4.07;100.00
9141;BME280;46330;50.822;7.126;2022-12-07T00:28:33;101056.25;;;4.10;100.00
9141;BME280;46330;50.822;7.126;2022-12-07T00:31:03;101057.09;;;4.09;100.00
9141;BME280;46330;50.822;7.126;2022-12-07T00:33:31;101054.44;;;4.06;100.00
9141;BME280;46330;50.822;7.126;2022-12-07T00:36:00;101057.06;;;4.07;100.00
9141;BME280;46330;50.822;7.126;2022-12-07T00:38:29;101051.91;;;4.07;100.00
9141;BME280;46330;50.822;7.126;2022-12-07T00:40:58;101045.81;;;4.05;100.00
9141;BME280;46330;50.822;7.126;2022-12-07T00:43:28;101035.47;;;4.05;100.00
9141;BME280;46330;50.822;7.126;2022-12-07T00:45:56;101043.25;;;4.08;100.00
9141;BME280;46330;50.822;7.126;2022-12-07T00:48:24;101045.88;;;4.10;100.00
9141;BME280;46330;50.822;7.126;2022-12-07T00:50:52;101039.00;;;4.10;100.00
9141;BME280;46330;50.822;7.126;2022-12-07T00:53:20;101032.06;;;4.09;100.00
9141;BME280;46330;50.822;7.126;2022-12-07T00:55:48;101046.78;;;4.12;100.00
9141;BME280;46330;50.822;7.126;2022-12-07T00:58:16;101045.00;;;4.09;100.00
9141;BME280;46330;50.822;7.126;2022-12-07T01:00:45;101038.13;;;4.11;100.00
9141;BME280;46330;50.822;7.126;2022-12-07T01:03:15;101029.47;;;4.09;100.00
9141;BME280;46330;50.822;7.126;2022-12-07T01:05:49;101032.06;;;4.09;100.00
9141;BME280;46330;50.822;7.126;2022-12-07T01:08:17;101028.66;;;4.10;100.00
9141;BME280;46330;50.822;7.126;2022-12-07T01:10:46;101036.44;;;4.13;100.00
9141;BME280;46330;50.822;7.126;2022-12-07T01:13:14;101031.28;;;4.15;100.00
9141;BME280;46330;50.822;7.126;2022-12-07T01:15:42;101033.00;;;4.13;100.00
9141;BME280;46330;50.822;7.126;2022-12-07T01:18:11;101039.03;;;4.15;100.00
9141;BME280;46330;50.822;7.126;2022-12-07T01:20:39;101036.41;;;4.12;100.00
9141;BME280;46330;50.822;7.126;2022-12-07T01:23:07;101026.91;;;4.09;100.00
9141;BME280;46330;50.822;7.126;2022-12-07T01:25:35;101034.75;;;4.15;100.00
9141;BME280;46330;50.822;7.126;2022-12-07T01:28:03;101039.91;;;4.15;100.00
9141;BME280;46330;50.822;7.126;2022-12-07T01:30:31;101039.94;;;4.17;100.00
9141;BME280;46330;50.822;7.126;2022-12-07T01:32:58;101043.34;;;4.13;100.00
9141;BME280;46330;50.822;7.126;2022-12-07T01:35:28;101039.94;;;4.17;100.00
9141;BME280;46330;50.822;7.126;2022-12-07T01:37:56;101042.50;;;4.15;100.00
9141;BME280;46330;50.822;7.126;2022-12-07T01:40:23;101037.38;;;4.18;100.00
9141;BME280;46330;50.822;7.126;2022-12-07T01:42:51;101043.38;;;4.16;100.00
9141;BME280;46330;50.822;7.126;2022-12-07T01:45:37;101035.63;;;4.17;100.00
9141;BME280;46330;50.822;7.126;2022-12-07T01:48:08;101036.53;;;4.19;100.00
9141;BME280;46330;50.822;7.126;2022-12-07T01:50:38;101037.38;;;4.17;100.00
9141;BME280;46330;50.822;7.126;2022-12-07T01:53:09;101033.03;;;4.17;100.00
9141;BME280;46330;50.822;7.126;2022-12-07T01:55:40;101039.13;;;4.21;100.00
9141;BME280;46330;50.822;7.126;2022-12-07T01:58:10;101035.63;;;4.17;100.00
9141;BME280;46330;50.822;7.126;2022-12-07T02:00:39;101037.41;;;4.21;100.00
9141;BME280;46330;50.822;7.126;2022-12-07T02:03:09;101031.34;;;4.19;100.00
9141;BME280;46330;50.822;7.126;2022-12-07T02:05:41;101033.94;;;4.21;100.00
9141;BME280;46330;50.822;7.126;2022-12-07T02:08:10;101025.38;;;4.25;100.00
9141;BME280;46330;50.822;7.126;2022-12-07T02:10:39;101022.75;;;4.22;100.00
9141;BME280;46330;50.822;7.126;2022-12-07T02:13:10;101015.03;;;4.25;100.00
9141;BME280;46330;50.822;7.126;2022-12-07T02:15:51;101016.78;;;4.27;100.00
9141;BME280;46330;50.822;7.126;2022-12-07T02:18:42;101018.47;;;4.27;100.00
9141;BME280;46330;50.822;7.126;2022-12-07T02:21:20;101007.19;;;4.20;100.00
9141;BME280;46330;50.822;7.126;2022-12-07T02:27:37;101017.66;;;4.28;100.00
9141;BME280;46330;50.822;7.126;2022-12-07T02:30:10;101002.94;;;4.25;100.00
9141;BME280;46330;50.822;7.126;2022-12-07T02:32:45;101014.19;;;4.27;100.00
9141;BME280;46330;50.822;7.126;2022-12-07T02:35:19;101010.75;;;4.30;100.00
9141;BME280;46330;50.822;7.126;2022-12-07T02:37:55;101018.53;;;4.28;100.00
9141;BME280;46330;50.822;7.126;2022-12-07T02:40:29;101000.31;;;4.24;100.00
9141;BME280;46330;50.822;7.126;2022-12-07T02:43:03;101007.22;;;4.23;100.00
9141;BME280;46330;50.822;7.126;2022-12-07T02:45:34;101008.09;;;4.22;100.00
9141;BME280;46330;50.822;7.126;2022-12-07T02:48:04;101007.22;;;4.22;100.00
9141;BME280;46330;50.822;7.126;2022-12-07T02:50:33;101004.59;;;4.20;100.00
9141;BME280;46330;50.822;7.126;2022-12-07T02:53:00;101008.97;;;4.24;100.00
9141;BME280;46330;50.822;7.126;2022-12-07T02:55:32;101004.66;;;4.25;100.00
9141;BME280;46330;50.822;7.126;2022-12-07T02:58:10;101005.53;;;4.25;100.00
9141;BME280;46330;50.822;7.126;2022-12-07T03:00:51;101002.94;;;4.25;100.00
9141;BME280;46330;50.822;7.126;2022-12-07T03:03:19;100997.78;;;4.27;100.00
9141;BME280;46330;50.822;7.126;2022-12-07T03:06:10;101002.03;;;4.23;100.00
9141;BME280;46330;50.822;7.126;2022-12-07T03:08:47;100995.09;;;4.19;100.00
9141;BME280;46330;50.822;7.126;2022-12-07T03:11:24;101002.00;;;4.20;100.00
9141;BME280;46330;50.822;7.126;2022-12-07T03:13:57;100989.94;;;4.19;100.00
9141;BME280;46330;50.822;7.126;2022-12-07T03:16:30;100991.69;;;4.22;100.00
9141;BME280;46330;50.822;7.126;2022-12-07T03:19:03;100992.56;;;4.22;100.00
9141;BME280;46330;50.822;7.126;2022-12-07T03:21:36;100993.44;;;4.24;100.00
9141;BME280;46330;50.822;7.126;2022-12-07T03:24:09;101001.19;;;4.23;100.00
9141;BME280;46330;50.822;7.126;2022-12-07T03:26:42;101006.38;;;4.23;100.00
9141;BME280;46330;50.822;7.126;2022-12-07T03:29:16;100999.44;;;4.22;100.00
9141;BME280;46330;50.822;7.126;2022-12-07T03:31:48;100997.75;;;4.24;100.00
9141;BME280;46330;50.822;7.126;2022-12-07T03:34:24;100996.00;;;4.21;100.00
9141;BME280;46330;50.822;7.126;2022-12-07T03:36:57;101002.00;;;4.19;100.00
9141;BME280;46330;50.822;7.126;2022-12-07T03:39:30;101004.59;;;4.20;100.00
9141;BME280;46330;50.822;7.126;2022-12-07T03:42:03;101000.28;;;4.21;100.00
9141;BME280;46330;50.822;7.126;2022-12-07T03:44:33;100998.59;;;4.23;100.00
9141;BME280;46330;50.822;7.126;2022-12-07T03:47:05;100993.41;;;4.21;100.00
9141;BME280;46330;50.822;7.126;2022-12-07T03:49:39;101003.75;;;4.21;100.00
9141;BME280;46330;50.822;7.126;2022-12-07T03:52:20;101001.19;;;4.23;100.00
9141;BME280;46330;50.822;7.126;2022-12-07T03:54:54;101004.63;;;4.23;100.00
9141;BME280;46330;50.822;7.126;2022-12-07T03:57:25;101000.28;;;4.19;100.00
9141;BME280;46330;50.822;7.126;2022-12-07T03:59:54;101002.03;;;4.23;100.00
9141;BME280;46330;50.822;7.126;2022-12-07T04:02:26;101007.22;;;4.23;100.00
9141;BME280;46330;50.822;7.126;2022-12-07T04:04:54;100999.47;;;4.25;100.00
9141;BME280;46330;50.822;7.126;2022-12-07T04:07:23;100998.59;;;4.23;100.00
9141;BME280;46330;50.822;7.126;2022-12-07T04:09:51;101002.94;;;4.25;100.00
9141;BME280;46330;50.822;7.126;2022-12-07T04:12:21;100998.69;;;4.29;100.00
9141;BME280;46330;50.822;7.126;2022-12-07T04:14:49;101006.38;;;4.24;100.00
9141;BME280;46330;50.822;7.126;2022-12-07T04:17:16;101007.28;;;4.26;100.00
9141;BME280;46330;50.822;7.126;2022-12-07T04:19:45;101000.41;;;4.28;100.00
9141;BME280;46330;50.822;7.126;2022-12-07T04:22:13;101005.53;;;4.27;100.00
9141;BME280;46330;50.822;7.126;2022-12-07T04:24:41;101012.38;;;4.22;100.00
9141;BME280;46330;50.822;7.126;2022-12-07T04:27:09;100997.78;;;4.25;100.00
9141;BME280;46330;50.822;7.126;2022-12-07T04:29:36;101001.19;;;4.24;100.00
9141;BME280;46330;50.822;7.126;2022-12-07T04:32:04;101002.09;;;4.26;100.00
9141;BME280;46330;50.822;7.126;2022-12-07T04:34:32;101002.06;;;4.25;100.00
9141;BME280;46330;50.822;7.126;2022-12-07T04:37:02;101002.94;;;4.25;100.00
9141;BME280;46330;50.822;7.126;2022-12-07T04:39:31;100996.97;;;4.29;100.00
9141;BME280;46330;50.822;7.126;2022-12-07T04:42:00;100996.94;;;4.28;100.00
9141;BME280;46330;50.822;7.126;2022-12-07T04:44:28;101000.41;;;4.28;100.00
9141;BME280;46330;50.822;7.126;2022-12-07T04:46:56;101002.06;;;4.25;100.00
9141;BME280;46330;50.822;7.126;2022-12-07T04:49:25;101000.34;;;4.25;100.00
9141;BME280;46330;50.822;7.126;2022-12-07T04:51:52;100993.47;;;4.27;100.00
9141;BME280;46330;50.822;7.126;2022-12-07T04:54:22;100992.63;;;4.28;100.00
9141;BME280;46330;50.822;7.126;2022-12-07T04:56:49;100987.41;;;4.25;100.00
9141;BME280;46330;50.822;7.126;2022-12-07T04:59:17;100993.47;;;4.26;100.00
9141;BME280;46330;50.822;7.126;2022-12-07T05:01:45;100997.78;;;4.27;100.00
9141;BME280;46330;50.822;7.126;2022-12-07T05:04:13;100994.34;;;4.26;100.00
9141;BME280;46330;50.822;7.126;2022-12-07T05:06:42;100987.41;;;4.25;100.00
9141;BME280;46330;50.822;7.126;2022-12-07T05:09:10;100996.94;;;4.26;100.00
9141;BME280;46330;50.822;7.126;2022-12-07T05:11:39;101001.19;;;4.24;100.00
9141;BME280;46330;50.822;7.126;2022-12-07T05:14:09;101000.31;;;4.24;100.00
9141;BME280;46330;50.822;7.126;2022-12-07T05:16:38;100995.06;;;4.18;100.00
9141;BME280;46330;50.822;7.126;2022-12-07T05:19:07;100998.56;;;4.20;100.00
9141;BME280;46330;50.822;7.126;2022-12-07T05:21:35;101001.97;;;4.16;100.00
9141;BME280;46330;50.822;7.126;2022-12-07T05:24:03;101006.25;;;4.14;100.00
9141;BME280;46330;50.822;7.126;2022-12-07T05:26:31;101008.88;;;4.17;100.00
9141;BME280;46330;50.822;7.126;2022-12-07T05:29:00;101011.47;;;4.18;100.00
9141;BME280;46330;50.822;7.126;2022-12-07T05:31:28;101009.72;;;4.17;100.00
9141;BME280;46330;50.822;7.126;2022-12-07T05:33:56;100993.31;;;4.15;100.00
9141;BME280;46330;50.822;7.126;2022-12-07T05:36:24;100997.63;;;4.15;100.00
9141;BME280;46330;50.822;7.126;2022-12-07T05:38:51;100999.38;;;4.16;100.00
9141;BME280;46330;50.822;7.126;2022-12-07T05:41:19;100998.47;;;4.12;100.00
9141;BME280;46330;50.822;7.126;2022-12-07T05:44:06;100996.72;;;4.11;100.00
9141;BME280;46330;50.822;7.126;2022-12-07T05:46:34;100997.63;;;4.13;100.00
9141;BME280;46330;50.822;7.126;2022-12-07T05:49:02;100996.72;;;4.11;100.00
9141;BME280;46330;50.822;7.126;2022-12-07T05:51:30;100994.13;;;4.10;100.00
9141;BME280;46330;50.822;7.126;2022-12-07T05:53:57;100990.63;;;4.06;100.00
9141;BME280;46330;50.822;7.126;2022-12-07T05:56:25;100988.00;;;4.05;100.00
9141;BME280;46330;50.822;7.126;2022-12-07T05:58:54;100987.16;;;4.06;100.00
9141;BME280;46330;50.822;7.126;2022-12-07T06:01:40;100988.91;;;4.08;100.00
9141;BME280;46330;50.822;7.126;2022-12-07T06:04:08;100988.06;;;4.09;100.00
9141;BME280;46330;50.822;7.126;2022-12-07T06:06:36;100996.69;;;4.08;100.00
9141;BME280;46330;50.822;7.126;2022-12-07T06:09:04;100999.22;;;4.05;100.00
9141;BME280;46330;50.822;7.126;2022-12-07T06:11:32;101000.06;;;4.03;100.00
9141;BME280;46330;50.822;7.126;2022-12-07T06:14:17;101000.91;;;4.02;100.00
9141;BME280;46330;50.822;7.126;2022-12-07T06:16:46;100997.44;;;4.00;100.00
9141;BME280;46330;50.822;7.126;2022-12-07T06:19:14;101002.59;;;3.98;100.00
9141;BME280;46330;50.822;7.126;2022-12-07T06:21:42;100994.78;;;3.94;100.00
9141;BME280;46330;50.822;7.126;2022-12-07T06:24:11;100976.63;;;3.91;100.00
9141;BME280;46330;50.822;7.126;2022-12-07T06:26:39;100984.41;;;3.94;100.00
9141;BME280;46330;50.822;7.126;2022-12-07T06:29:07;100975.72;;;3.87;100.00
9141;BME280;46330;50.822;7.126;2022-12-07T06:31:35;100992.06;;;3.85;100.00
9141;BME280;46330;50.822;7.126;2022-12-07T06:34:06;100998.91;;;3.81;100.00
9141;BME280;46330;50.822;7.126;2022-12-07T06:36:34;101008.38;;;3.80;100.00
9141;BME280;46330;50.822;7.126;2022-12-07T06:39:02;101004.84;;;3.72;100.00
9141;BME280;46330;50.822;7.126;2022-12-07T06:41:30;101013.47;;;3.74;100.00
9141;BME280;46330;50.822;7.126;2022-12-07T06:43:58;101010.91;;;3.76;100.00
9141;BME280;46330;50.822;7.126;2022-12-07T06:46:25;101004.09;;;3.79;100.00
9141;BME280;46330;50.822;7.126;2022-12-07T06:48:53;101012.63;;;3.75;100.00
9141;BME280;46330;50.822;7.126;2022-12-07T06:51:23;101013.47;;;3.73;100.00
9141;BME280;46330;50.822;7.126;2022-12-07T06:53:50;101026.41;;;3.74;100.00
9141;BME280;46330;50.822;7.126;2022-12-07T06:56:18;101016.00;;;3.71;100.00
9141;BME280;46330;50.822;7.126;2022-12-07T06:58:46;101016.00;;;3.71;100.00
9141;BME280;46330;50.822;7.126;2022-12-07T07:01:16;101007.34;;;3.68;100.00
9141;BME280;46330;50.822;7.126;2022-12-07T07:03:45;101012.50;;;3.68;100.00
9141;BME280;46330;50.822;7.126;2022-12-07T07:06:13;101007.28;;;3.63;100.00
9141;BME280;46330;50.822;7.126;2022-12-07T07:08:42;101003.03;;;3.68;100.00
9141;BME280;46330;50.822;7.126;2022-12-07T07:11:10;101014.25;;;3.69;100.00
9141;BME280;46330;50.822;7.126;2022-12-07T07:13:38;101015.13;;;3.71;100.00
9141;BME280;46330;50.822;7.126;2022-12-07T07:16:07;101016.00;;;3.70;100.00
9141;BME280;46330;50.822;7.126;2022-12-07T07:18:35;101026.41;;;3.74;100.00
9141;BME280;46330;50.822;7.126;2022-12-07T07:21:04;101025.56;;;3.77;100.00
9141;BME280;46330;50.822;7.126;2022-12-07T07:23:32;101029.06;;;3.79;100.00
9141;BME280;46330;50.822;7.126;2022-12-07T07:26:01;101028.22;;;3.80;100.00
9141;BME280;46330;50.822;7.126;2022-12-07T07:28:29;101030.03;;;3.86;100.00
9141;BME280;46330;50.822;7.126;2022-12-07T07:30:56;101034.41;;;3.91;100.00
9141;BME280;46330;50.822;7.126;2022-12-07T07:33:24;101036.16;;;3.94;100.00
9141;BME280;46330;50.822;7.126;2022-12-07T07:35:52;101037.13;;;4.00;100.00
9141;BME280;46330;50.822;7.126;2022-12-07T07:38:20;101026.81;;;4.03;100.00
9141;BME280;46330;50.822;7.126;2022-12-07T07:40:47;101027.69;;;4.04;100.00
9141;BME280;46330;50.822;7.126;2022-12-07T07:43:17;101032.88;;;4.05;100.00
9141;BME280;46330;50.822;7.126;2022-12-07T07:45:44;101032.00;;;4.03;100.00
9141;BME280;46330;50.822;7.126;2022-12-07T07:48:12;101031.13;;;4.03;100.00
9141;BME280;46330;50.822;7.126;2022-12-07T07:50:40;101029.31;;;3.97;100.00
9141;BME280;46330;50.822;7.126;2022-12-07T07:53:08;101026.81;;;4.03;100.00
9141;BME280;46330;50.822;7.126;2022-12-07T07:55:36;101032.00;;;4.05;100.00
9141;BME280;46330;50.822;7.126;2022-12-07T07:58:03;101033.75;;;4.06;100.00
9141;BME280;46330;50.822;7.126;2022-12-07T08:00:32;101040.63;;;4.04;100.00
9141;BME280;46330;50.822;7.126;2022-12-07T08:03:00;101033.78;;;4.07;100.00
9141;BME280;46330;50.822;7.126;2022-12-07T08:05:28;101037.25;;;4.09;100.00
9141;BME280;46330;50.822;7.126;2022-12-07T08:07:57;101039.13;;;4.19;100.00
9141;BME280;46330;50.822;7.126;2022-12-07T08:10:25;101034.00;;;4.25;100.00
9141;BME280;46330;50.822;7.126;2022-12-07T08:12:53;101038.38;;;4.31;100.00
9141;BME280;46330;50.822;7.126;2022-12-07T08:15:42;101041.00;;;4.32;100.00
9141;BME280;46330;50.822;7.126;2022-12-07T08:18:11;101041.94;;;4.38;100.00
9141;BME280;46330;50.822;7.126;2022-12-07T08:20:40;101027.31;;;4.41;100.00
9141;BME280;46330;50.822;7.126;2022-12-07T08:23:08;101035.94;;;4.43;100.00
9141;BME280;46330;50.822;7.126;2022-12-07T08:25:37;101023.06;;;4.49;100.00
9141;BME280;46330;50.822;7.126;2022-12-07T08:28:05;101027.41;;;4.52;100.00
9141;BME280;46330;50.822;7.126;2022-12-07T08:30:33;101030.88;;;4.51;100.00
9141;BME280;46330;50.822;7.126;2022-12-07T08:33:02;101026.75;;;4.71;100.00
9141;BME280;46330;50.822;7.126;2022-12-07T08:35:32;101035.53;;;4.82;100.00
9141;BME280;46330;50.822;7.126;2022-12-07T08:38:00;101025.97;;;4.78;100.00
9141;BME280;46330;50.822;7.126;2022-12-07T08:40:29;101037.22;;;4.78;100.00
9141;BME280;46330;50.822;7.126;2022-12-07T08:42:57;101031.94;;;4.69;100.00
9141;BME280;46330;50.822;7.126;2022-12-07T08:45:24;101038.03;;;4.74;100.00
9141;BME280;46330;50.822;7.126;2022-12-07T08:47:56;101044.94;;;4.74;100.00
9141;BME280;46330;50.822;7.126;2022-12-07T08:50:27;101044.88;;;4.68;100.00
9141;BME280;46330;50.822;7.126;2022-12-07T08:52:57;101043.94;;;4.61;100.00
9141;BME280;46330;50.822;7.126;2022-12-07T08:55:26;101030.06;;;4.56;100.00
9141;BME280;46330;50.822;7.126;2022-12-07T08:57:54;101037.69;;;4.46;100.00
9141;BME280;46330;50.822;7.126;2022-12-07T09:00:22;101040.31;;;4.47;100.00
9141;BME280;46330;50.822;7.126;2022-12-07T09:02:50;101033.47;;;4.51;100.00
9141;BME280;46330;50.822;7.126;2022-12-07T09:05:18;101035.28;;;4.61;100.00
9141;BME280;46330;50.822;7.126;2022-12-07T09:07:51;101044.06;;;4.72;100.00
9141;BME280;46330;50.822;7.126;2022-12-07T09:10:19;101044.16;;;4.81;100.00
9141;BME280;46330;50.822;7.126;2022-12-07T09:12:47;101046.03;;;4.96;100.00
9141;BME280;46330;50.822;7.126;2022-12-07T09:15:15;101047.81;;;5.01;100.00
9141;BME280;46330;50.822;7.126;2022-12-07T09:17:43;101040.06;;;5.03;100.00
9141;BME280;46330;50.822;7.126;2022-12-07T09:20:11;101043.56;;;5.11;100.00
9141;BME280;46330;50.822;7.126;2022-12-07T09:22:39;101036.63;;;5.05;100.00
9141;BME280;46330;50.822;7.126;2022-12-07T09:25:09;101034.03;;;5.07;100.00
9141;BME280;46330;50.822;7.126;2022-12-07T09:27:36;101053.16;;;5.18;100.00
9141;BME280;46330;50.822;7.126;2022-12-07T09:30:05;101047.09;;;5.16;100.00
9141;BME280;46330;50.822;7.126;2022-12-07T09:32:33;101037.75;;;5.34;100.00
9141;BME280;46330;50.822;7.126;2022-12-07T09:35:01;101043.84;;;5.38;100.00
9141;BME280;46330;50.822;7.126;2022-12-07T09:37:29;101045.53;;;5.34;100.00
9141;BME280;46330;50.822;7.126;2022-12-07T09:40:02;101052.34;;;5.22;100.00
9141;BME280;46330;50.822;7.126;2022-12-07T09:42:34;101051.53;;;5.30;100.00
9141;BME280;46330;50.822;7.126;2022-12-07T09:45:05;101046.31;;;5.24;100.00
9141;BME280;46330;50.822;7.126;2022-12-07T09:47:34;101050.75;;;5.42;100.00
9141;BME280;46330;50.822;7.126;2022-12-07T09:50:05;101038.53;;;5.27;100.00
9141;BME280;46330;50.822;7.126;2022-12-07T09:52:33;101044.56;;;5.26;100.00
9141;BME280;46330;50.822;7.126;2022-12-07T09:55:11;101039.25;;;5.10;100.00
9141;BME280;46330;50.822;7.126;2022-12-07T09:57:41;101052.94;;;4.98;100.00
9141;BME280;46330;50.822;7.126;2022-12-07T10:00:13;101046.94;;;5.02;100.00
9141;BME280;46330;50.822;7.126;2022-12-07T10:02:43;101043.47;;;5.00;100.00
9141;BME280;46330;50.822;7.126;2022-12-07T10:05:14;101040.88;;;4.97;100.00
9141;BME280;46330;50.822;7.126;2022-12-07T10:07:50;101040.06;;;5.03;100.00
9141;BME280;46330;50.822;7.126;2022-12-07T10:10:22;101033.16;;;5.03;100.00
9141;BME280;46330;50.822;7.126;2022-12-07T10:12:59;101027.13;;;5.09;100.00
9141;BME280;46330;50.822;7.126;2022-12-07T10:15:55;101028.13;;;5.20;100.00
9141;BME280;46330;50.822;7.126;2022-12-07T10:18:33;101029.03;;;5.29;100.00
9141;BME280;46330;50.822;7.126;2022-12-07T10:21:09;101029.13;;;5.35;100.00
9141;BME280;46330;50.822;7.126;2022-12-07T10:23:39;101024.81;;;5.39;100.00
9141;BME280;46330;50.822;7.126;2022-12-07T10:26:29;101021.38;;;5.43;100.00
9141;BME280;46330;50.822;7.126;2022-12-07T10:29:01;101007.56;;;5.46;100.00
9141;BME280;46330;50.822;7.126;2022-12-07T10:31:30;101016.38;;;5.70;100.00
9141;BME280;46330;50.822;7.126;2022-12-07T10:34:00;101015.56;;;5.73;100.00
9141;BME280;46330;50.822;7.126;2022-12-07T10:36:34;100999.09;;;5.74;100.00
9141;BME280;46330;50.822;7.126;2022-12-07T10:39:09;101001.69;;;5.69;100.00
9141;BME280;46330;50.822;7.126;2022-12-07T10:41:52;100998.34;;;5.87;100.00
9141;BME280;46330;50.822;7.126;2022-12-07T10:44:23;100996.66;;;5.98;100.00
9141;BME280;46330;50.822;7.126;2022-12-07T10:47:13;100998.44;;;6.05;100.00
9141;BME280;46330;50.822;7.126;2022-12-07T10:50:24;101000.25;;;6.23;100.00
9141;BME280;46330;50.822;7.126;2022-12-07T10:53:18;100991.50;;;6.00;100.00
9141;BME280;46330;50.822;7.126;2022-12-07T10:56:06;100987.91;;;5.82;100.00
9141;BME280;46330;50.822;7.126;2022-12-07T10:58:47;100988.00;;;5.90;100.00
9141;BME280;46330;50.822;7.126;2022-12-07T11:01:25;100982.69;;;5.78;100.00
9141;BME280;46330;50.822;7.126;2022-12-07T11:04:13;100983.50;;;5.66;100.00
9141;BME280;46330;50.822;7.126;2022-12-07T11:06:51;100970.53;;;5.68;100.00
9141;BME280;46330;50.822;7.126;2022-12-07T11:09:56;100977.44;;;5.66;100.00
9141;BME280;46330;50.822;7.126;2022-12-07T11:15:29;100964.53;;;5.82;100.00
9141;BME280;46330;50.822;7.126;2022-12-07T11:18:06;100967.19;;;5.88;100.00
9141;BME280;46330;50.822;7.126;2022-12-07T11:20:43;100956.00;;;5.99;100.00
9141;BME280;46330;50.822;7.126;2022-12-07T11:23:21;100950.00;;;6.06;100.00
9141;BME280;46330;50.822;7.126;2022-12-07T11:25:54;100948.31;;;6.21;100.00
9141;BME280;46330;50.822;7.126;2022-12-07T11:28:34;100948.31;;;6.26;100.00
9141;BME280;46330;50.822;7.126;2022-12-07T11:31:12;100938.81;;;6.22;100.00
9141;BME280;46330;50.822;7.126;2022-12-07T11:33:53;100942.25;;;6.19;100.00
9141;BME280;46330;50.822;7.126;2022-12-07T11:36:33;100943.09;;;6.12;100.00
9141;BME280;46330;50.822;7.126;2022-12-07T11:39:12;100935.31;;;6.21;100.00
9141;BME280;46330;50.822;7.126;2022-12-07T11:41:45;100933.63;;;6.28;100.00
9141;BME280;46330;50.822;7.126;2022-12-07T11:44:25;100930.13;;;6.20;100.00
9141;BME280;46330;50.822;7.126;2022-12-07T11:46:59;100923.19;;;6.23;100.00
9141;BME280;46330;50.822;7.126;2022-12-07T11:49:40;100927.53;;;6.18;100.00
9141;BME280;46330;50.822;7.126;2022-12-07T11:52:18;100924.06;;;6.18;100.00
9141;BME280;46330;50.822;7.126;2022-12-07T11:54:50;100916.28;;;6.22;100.00
9141;BME280;46330;50.822;7.126;2022-12-07T11:57:25;100920.59;;;6.20;100.00
9141;BME280;46330;50.822;7.126;2022-12-07T12:00:00;100915.38;;;6.08;99.36
9141;BME280;46330;50.822;7.126;2022-12-07T12:02:34;100915.34;;;5.91;99.65
9141;BME280;46330;50.822;7.126;2022-12-07T12:05:13;100909.28;;;5.99;99.77
9141;BME280;46330;50.822;7.126;2022-12-07T12:07:44;100910.13;;;5.93;100.00
9141;BME280;46330;50.822;7.126;2022-12-07T12:10:40;100911.00;;;5.93;99.78
9141;BME280;46330;50.822;7.126;2022-12-07T12:13:20;100907.47;;;5.84;100.00
9141;BME280;46330;50.822;7.126;2022-12-07T12:16:23;100910.78;;;5.53;100.00
9141;BME280;46330;50.822;7.126;2022-12-07T12:19:11;100909.94;;;5.58;100.00
9141;BME280;46330;50.822;7.126;2022-12-07T12:21:46;100912.53;;;5.58;100.00
9141;BME280;46330;50.822;7.126;2022-12-07T12:24:25;100904.66;;;5.40;100.00
9141;BME280;46330;50.822;7.126;2022-12-07T12:26:59;100909.84;;;5.43;100.00
9141;BME280;46330;50.822;7.126;2022-12-07T12:29:32;100904.72;;;5.51;100.00
9141;BME280;46330;50.822;7.126;2022-12-07T12:32:07;100902.97;;;5.51;100.00
9141;BME280;46330;50.822;7.126;2022-12-07T12:34:41;100903.84;;;5.47;100.00
9141;BME280;46330;50.822;7.126;2022-12-07T12:37:43;100898.63;;;5.49;100.00
9141;BME280;46330;50.822;7.126;2022-12-07T12:40:40;100893.41;;;5.41;100.00
9141;BME280;46330;50.822;7.126;2022-12-07T12:43:47;100895.09;;;5.34;100.00
9141;BME280;46330;50.822;7.126;2022-12-07T12:46:48;100888.22;;;5.38;100.00
9141;BME280;46330;50.822;7.126;2022-12-07T12:49:35;100896.81;;;5.31;100.00
9141;BME280;46330;50.822;7.126;2022-12-07T12:55:20;100895.94;;;5.30;100.00
9141;BME280;46330;50.822;7.126;2022-12-07T13:03:56;100889.06;;;5.35;100.00
9141;BME280;46330;50.822;7.126;2022-12-07T13:06:34;100890.81;;;5.41;100.00
9141;BME280;46330;50.822;7.126;2022-12-07T13:09:15;100889.06;;;5.37;100.00
9141;BME280;46330;50.822;7.126;2022-12-07T13:11:47;100885.66;;;5.47;100.00
9141;BME280;46330;50.822;7.126;2022-12-07T13:14:41;100880.47;;;5.47;100.00
9141;BME280;46330;50.822;7.126;2022-12-07T13:17:09;100877.88;;;5.46;100.00
9141;BME280;46330;50.822;7.126;2022-12-07T13:19:59;100881.31;;;5.40;100.00
9141;BME280;46330;50.822;7.126;2022-12-07T13:22:49;100873.50;;;5.37;100.00
9141;BME280;46330;50.822;7.126;2022-12-07T13:25:22;100877.84;;;5.38;100.00
9141;BME280;46330;50.822;7.126;2022-12-07T13:27:57;100883.84;;;5.32;100.00
9141;BME280;46330;50.822;7.126;2022-12-07T13:30:29;100872.56;;;5.24;100.00
9141;BME280;46330;50.822;7.126;2022-12-07T13:32:58;100871.72;;;5.30;100.00
9141;BME280;46330;50.822;7.126;2022-12-07T13:35:34;100872.63;;;5.32;100.00
9141;BME280;46330;50.822;7.126;2022-12-07T13:38:13;100874.34;;;5.33;100.00
9141;BME280;46330;50.822;7.126;2022-12-07T13:40:59;100870.00;;;5.30;100.00
9141;BME280;46330;50.822;7.126;2022-12-07T13:43:28;100871.72;;;5.28;100.00